Browse Source

Add some AIS datas

pull/58/head
squeaky otter 2 years ago
parent
commit
5c2db495ac
Signed by: dashie GPG Key ID: C2D57B325840B755
  1. 403
      real_datas_test.py

403
real_datas_test.py

@ -3774,6 +3774,409 @@ REAL_DATA_ADSB = [
"MSG,3,1,1,E49296,1,2019/02/25,20:50:03.328,2019/02/25,20:50:03.332,,15625,,,48.89502,1.93641,,,0,,0,0",
]
REAL_DATA_AIS = [
"!AIVDM,1,1,,A,13I94F0P0tP0o=bLDT69W?w02@Bw,0*69",
"!AIVDM,1,1,,A,13IMJM000000PilLD;ue:Wvv052p,0*7B",
"!AIVDM,1,1,,A,13GRUePP0000lGPLDK6=VOw0252p,0*29",
"!AIVDM,1,1,,A,33P=?iE00100t;hLCnQ@P`nv0000,0*16",
"!AIVDM,1,1,,B,13GRBn0P1LP0mLNLD5gWhOw02D1:,0*1C",
"!AIVDM,1,1,,A,1815K2h001P0e3`LCVVUcp500U2p,0*36",
"!AIVDM,1,1,,A,13IQ?i;00000W5>LCm`qQpi20D1K,0*3A",
"!AIVDM,1,1,,A,13GR8@P001P0R?bLD58lR@O00<19,0*47",
"!AIVDM,1,1,,B,13cA<:020kOwI@VLFkp7JVHv80Rq,0*12",
"!AIVDM,1,1,,A,137Q:T001mP0MEdLD5ATlSm000S=,0*58",
"!AIVDM,1,1,,B,402;bFQv@T`fQ00Dl2LE57A00HD?,0*0B",
"!AIVDM,1,1,,A,13Hgj;PP0100Q>lLD:NB8gw200RA,0*6F",
"!AIVDM,1,1,,B,13Hbq1?P01P14HDLB27t5Ow820SV,0*37",
"!AIVDM,2,1,9,A,537d=V42A>I;D89KF20859@tf22222222222221B9hE864U;0<DSm51DQ0CH,0*58",
"!AIVDM,2,2,9,A,88888888880,2*2D",
"!AIVDM,1,1,,B,13aDqKhP00P0p<hLCG1D2gw6R52p,0*48",
"!AIVDM,1,1,,B,B3HOIj000H09hR74u26VOwj5oP06,0*41",
"!AIVDM,1,1,,A,13HOI<PP0200drpLCW3aJ?w80HEb,0*5D",
"!AIVDM,1,1,,B,13HQ8p?000P0pL0LCCt7Grc:0D0u,0*47",
"!AIVDM,1,1,,B,13Ht`rPP0000Q9LLD:U@0?w800RP,0*48",
"!AIVDM,1,1,,B,337d=V0PA200i>dLCmAbF`5<00hh,0*53",
"!AIVDM,1,1,,A,13Id7503SHwv@VlLGShuB:M:0hFN,0*72",
"!AIVDM,1,1,,B,13IbQQ0P0000lq6LD7K;jgw:8@G>,0*49",
"!AIVDM,1,1,,A,13GROl4P00P0nrJLDTCb0?w<RHFp,0*55",
"!AIVDM,1,1,,A,13aDpL0P0A00k2rLDLJjKwvHR8G0,0*7C",
"!AIVDM,1,1,,A,13IVvu0P0000kPDLCoB``Ow@052p,0*3A",
"!AIVDM,1,1,,B,13I<skPP0300Q3RLD:t7Cww>08Gc,0*59",
"!AIVDM,1,1,,B,13HOI:?P0300e@@LCWuuo?w>0<1O,0*69",
"!AIVDM,1,1,,B,D02;bFQ?@Lfq6DM6EH8u6D0,2*00",
"!AIVDM,1,1,,B,13IeIP0Oh400d8<LCVjmwUKB0D1O,0*2E",
"!AIVDM,1,1,,B,13IdFD300100VtnLCkk:7SSB0@H0,0*0E",
"!AIVDM,1,1,,A,402:rbQv@T`f`P14=`LB6O700<1J,0*60",
"!AIVDM,1,1,,A,137d=V0PA300i;:LCm>JFp3D00Ru,0*16",
"!AIVDM,1,1,,B,13HT5AgP00P0q0PLDUJBwgw@20RN,0*65",
"!AIVDM,1,1,,B,13aFf6PP0000lA8LDK<v4?wBP@HR,0*78",
"!AIVDM,1,1,,B,13I94F0P0uP0o6`LDSo9iwwB2HHU,0*18",
"!AIVDM,1,1,,B,33IlGV7P@mOwtVFLFN1FaEUD001S,0*63",
"!AIVDM,1,1,,B,13IeUW000000jJLLC4p:tUsD0HHb,0*50",
"!AIVDM,1,1,,B,13GRUePP0100lFvLDK5eVOwB28He,0*47",
"!AIVDM,1,1,,B,1815K2h002P0e3NLCVUdkp3B0`Hk,0*02",
"!AIVDM,1,1,,B,13IMJM000000PilLD;ue:WwB0HHw,0*4D",
"!AIVDM,1,1,,A,13btOt0000P17ChLCNmj>QkB00S<,0*1B",
"!AIVDM,1,1,,B,13Id75023Hwv@QjLGToeA:MD0U2p,0*0B",
"!AIVDM,1,1,,B,133w4wP000P0dJdLC@d:F`kFR@Ia,0*4A",
"!AIVDM,1,1,,A,13GRBn0P1LP0mH6LD4eWhOwF2@Ij,0*3A",
"!AIVDM,1,1,,B,13GR8@P001P0R?`LD58UuPOF0D19,0*46",
"!AIVDM,1,1,,B,13IQ?i;00100W5@LCm`pR`iH0HIt,0*65",
"!AIVDM,1,1,,B,137Q:T001mP0MRfLD4UTl3mD0L1B,0*2E",
"!AIVDM,1,1,,B,13Hgj;PP0300Q>jLD:N7uwwF052p,0*60",
"!AIVDM,1,1,,A,402;bFQv@T`fc00Dl4LE57A000S:,0*56",
"!AIVDM,1,1,,A,13aDqKhP00P0p<hLCG1D2gwJR<1M,0*00",
"!AIVDM,1,1,,B,23:l:N1004wwN0tLD>mTd6UH08K>,0*34",
"!AIVDM,1,1,,A,13Hbq1?P02014HJLB2:L6OwN2@KR,0*75",
"!AIVDM,1,1,,B,13HOI<PP0200drlLCW0sEOwN00SK,0*1D",
"!AIVDM,1,1,,A,13Ht`rPP0400Q9HLD:TQ?gwL052p,0*3D",
"!AIVDM,1,1,,A,337d=V0PA600i5NLCm<bJoqP00k@,0*08",
"!AIVDM,1,1,,B,13aDpL0P0A00k2`LDLNRKwv`R0SK,0*1E",
"!AIVDM,1,1,,B,833w4wPj2P00000000000?cm7lP0,0*4B",
"!AIVDM,1,1,,B,13GROl4P00P0nrPLDTBqdOwPR8Ld,0*78",
"!AIVDM,1,1,,A,13IbQQ0P0100lq4LD7KG8OwP852p,0*6B",
"!AIVDM,1,1,,B,33ku:lUvh0017?rLB7tK?8MP0000,0*71",
"!AIVDM,1,1,,B,337d=V0PA600i3VLCm;:IWoT00tP,0*64",
"!AIVDM,1,1,,B,13IVvu0P0100kP`LCoA``OwT0D1=,0*34",
"!AIVDM,1,1,,A,13IdFD300100Vu<LCkj:7SST0<1e,0*19",
"!AIVDM,1,1,,A,13HOI:?P0200e@2LCWwMswwR0<1N,0*1A",
"!AIVDM,1,1,,B,402:rbQv@T`fjP14=`LB6O700@Ms,0*50",
"!AIVDM,1,1,,A,13aFf6PP0000lA8LDK<f4?wVPD1E,0*15",
"!AIVDM,1,1,,A,13I<skPP0100Q3VLD:rpowwT0@N=,0*74",
"!AIVDM,1,1,,A,13HT5AgP00P0q0PLDUJBwgwV2D0s,0*5B",
"!AIVDM,1,1,,A,13I94F0P0vP0nvPLDS`angwV20Si,0*62",
"!AIVDM,1,1,,A,13IlGV7OhoOwt`LLFMMVIEWV0@NE,0*25",
"!AIVDM,1,1,,A,13IeUW000000jJLLC4p3kmsb0D13,0*7F",
"!AIVDM,1,1,,A,133w4wP000P0dJnLC@b:I8k`R<14,0*65",
"!AIVDM,1,1,,A,13IMJM000000PilLD;ue:WwV08Nu,0*2E",
"!AIVDM,1,1,,A,13IQ?i;00000W5DLCma=0`ib08O2,0*57",
"!AIVDM,2,1,0,B,53IdFD02?3d`Hpdv220L4l8F0B04lH58B222221J60<7740Ht<0000000000,0*2F",
"!AIVDM,2,2,0,B,00000000000,2*27",
"!AIVDM,1,1,,A,337d=V0PA700hwjLCm9rHWid029P,0*2D",
"!AIVDM,1,1,,B,13cA<:02@fOwI=RLFjpGLFIV852p,0*34",
"!AIVDM,1,1,,B,13btOt0001P17CfLCNmoOikV00Rw,0*05",
"!AIVDM,1,1,,A,13Hgj;PP0300Q>hLD:NC`?w`052p,0*6E",
"!AIVDM,2,1,1,B,53IVvu42=k?0IHH8001H:0858HhEE:2S7RT0000l1@D5540Ht<P000000000,0*12",
"!AIVDM,2,2,1,B,00000000000,2*26",
"!AIVDM,1,1,,B,402;bFQv@T`fm00Dl6LE57A00@Ou,0*7A",
"!AIVDM,1,1,,A,137Q:T001mP0MgpLD3rDj3m`08P<,0*77",
"!AIVDM,2,1,2,B,53IQ?i82E`w<HaPb221H:37J1@u8p4@F2222220l1HC4440Ht=C1H20ETQH8,0*3B",
"!AIVDM,2,2,2,B,88888888880,2*25",
"!AIVDM,2,1,3,B,53MAMJSBsfDhlEaOV20NuJ0P5Dh8uLhTpF22220W1H<344CRN91m@DQ80DQ@,0*43",
"!AIVDM,2,2,3,B,H8888888880,2*54",
"!AIVDM,1,1,,B,13HQ8p?001P0pL0LCCt5trcf0D0u,0*2B",
"!AIVDM,1,1,,A,D02;bFPCpLfq6DM6D@@u6D0,2*3F",
"!AIVDM,1,1,,B,337d=V0PA700hu4LCm8:Goej01=@,0*19",
"!AIVDM,1,1,,A,13I;QJPOh000Qv4LD:e552ej052p,0*34",
"!AIVDM,1,1,,B,13Hbq1?P01P14HBLB2;L>gwj20S4,0*16",
"!AIVDM,1,1,,B,13aDqKhP00P0p<hLCG1D2gwhR52p,0*16",
"!AIVDM,1,1,,B,13Ht`rPP0000Q9:LD:O@0?wh00S3,0*16",
"!AIVDM,1,1,,B,13IbQQ0P0000lq4LD7K`1Owh8@RQ,0*4B",
"!AIVDM,1,1,,A,13HPIH?001P0jE:LC4iU>mqj08R8,0*6B",
"!AIVDM,2,1,4,A,58JEW@02;c?OUHTN220PtDLR11E<4r22222222162RPJ64SaNCp3@H453H?H,0*5E",
"!AIVDM,2,2,4,A,1T`31B88880,2*65",
"!AIVDM,2,1,5,B,58JEW@02;c?OUHTN220PtDLR11E<4r22222222162RPJ64SaNCp3@H453H?H,0*5C",
"!AIVDM,2,2,5,B,1T`31B88880,2*67",
"!AIVDM,1,1,,A,13GROl4P00P0nrVLDTBr8wwlR8Rd,0*38",
"!AIVDM,1,1,,A,13aDpL0P0A00k1pLDLKRKww0R52p,0*05",
"!AIVDM,1,1,,A,13IVvu0P0100kQ0LCo@p`Ov00H04,0*16",
"!AIVDM,1,1,,B,13I94F0P0wP0no<LDSKaugv02@0S,0*6B",
"!AIVDM,1,1,,B,13IdFD300000Vu0LCklbwkR20@0T,0*1A",
"!AIVDM,1,1,,B,33Ij:U5000P0hhHLC;f`2S>00Dob,0*60",
"!AIVDM,1,1,,B,13I<skPP0100Q3bLD:qdDwwn0<17,0*4C",
"!AIVDM,1,1,,B,13aFf6PP0000lA@LDK<>4?v2P<1E,0*2B",
"!AIVDM,1,1,,B,13HT5AgP00P0q0PLDUJBwgv22D0s,0*3D",
"!AIVDM,1,1,,B,13GRUePP0500lFBLDK7uVOv22<0i,0*64",
"!AIVDM,1,1,,A,13Id7501CIwv@?6LGa6=BrN20h16,0*3A",
"!AIVDM,1,1,,B,13IeUW000000jJHLC4p<15r40<13,0*5A",
"!AIVDM,1,1,,A,13btOt0001P17CfLCNmq@Qj000SV,0*68",
"!AIVDM,1,1,,B,13IlGV7P@mOwta<LFLmnW5T2081N,0*7E",
"!AIVDM,1,1,,B,13IQ?i;00000W5BLCmasqpf60@1a,0*43",
"!AIVDM,1,1,,B,1815K2h002P0e2LLCVQLmp240d1k,0*21",
"!AIVDM,1,1,,B,13IMJM000000PilLD;ue:Wv2052t,0*38",
"!AIVDM,1,1,,B,13GR8@P001P0R?FLD5:H80N60<18,0*5A",
"!AIVDM,1,1,,B,137Q:T001lP0Mu0LD3?TiCl40<1C,0*46",
"!AIVDM,1,1,,B,13Hgj;PP0100Q>hLD:NE`gv4082I,0*50",
"!AIVDM,1,1,,B,133w4wP000P0dJfLC@b008j8R<14,0*44",
"!AIVDM,1,1,,A,33HOI?0P0000dGHLCVb;0gv80RvA,0*10",
"!AIVDM,1,1,,A,402;bFQv@T`g300Dl6LE57A00<1d,0*35",
"!AIVDM,1,1,,B,337d=V0PA800hmPLCm0J:oR:01nh,0*73",
"!AIVDM,1,1,,A,13aDqKhP00P0p<hLCG1D2gv<R<1L,0*76",
"!AIVDM,1,1,,A,13Ht`rPP0000Q9>LD:O@0?v:052t,0*61",
"!AIVDM,2,1,6,A,59NSLsP2AfUPCDpOB20lDhTp622222222222221?B0J:A4T60B4SmAC`8888,0*64",
"!AIVDM,2,2,6,A,88888888880,2*22",
"!AIVDM,1,1,,A,13HQ8p?001P0pL0LCCsupJb<0<0u,0*70",
"!AIVDM,1,1,,B,13HOI<PP0100drPLCVw;wOv>0<1W,0*1D",
"!AIVDM,1,1,,B,13Id750tkIwv@:BLGb==C:N<0`4K,0*1A",
"!AIVDM,1,1,,A,337d=V0PA800hjlLClub5oN@00ih,0*48",
"!AIVDM,1,1,,B,13aDpL0P0A00k1PLDLLBKwwBR@4q,0*31",
"!AIVDM,1,1,,A,30GitC5P0100TK0LDDnH3Ov>0DQb,0*6E",
"!AIVDM,1,1,,B,13GROl4P00P0nrPLDTAJIOv@RH5K,0*5A",
"!AIVDM,1,1,,A,13IbQQ0P0000lq2LD7KSNOv@8<0t,0*10",
"!AIVDM,1,1,,B,137d=V0PA800hhtLClu9woLD0@5q,0*79",
"!AIVDM,1,1,,A,13IdFD300000Vu2LCklbrkRF0@60,0*08",
"!AIVDM,1,1,,A,13HOI:?P0100e?pLCWtL3wvB0@69,0*7B",
"!AIVDM,1,1,,B,D02;bFP8tLfp00M6DAlu6D0,2*1D",
"!AIVDM,1,1,,A,13IlGV7P@iOwtc>LFLGnM5VF0<14,0*41",
"!AIVDM,1,1,,B,23:l:N1002wwN1FLD>lJf6VB052t,0*2B",
"!AIVDM,1,1,,B,402:rbQv@T`g:P14=`LB6O700L1?,0*3D",
"!AIVDM,1,1,,A,13I<skPP0200Q3fLD:oS=gvB052t,0*6C",
"!AIVDM,1,1,,A,13I94F0P0uP0nfJLDS>IowvF2H6f,0*0F",
"!AIVDM,1,1,,B,33B;;01002wwTHlLCLG32FbD0DgJ,0*18",
"!AIVDM,1,1,,B,13IVvu0P0100kQ8LCo@p`OvF0<1=,0*17",
"!AIVDM,1,1,,A,13aFf6PP0000lA:LDK<N4?vFP<1E,0*56",
"!AIVDM,1,1,,A,13GRUePP0400lF2LDK@=VOvF2<0j,0*5E",
"!AIVDM,1,1,,A,38155M500000mm`LCwU1=THH0000,0*41",
"!AIVDM,1,1,,A,13IMJM000000PilLD;ue:WvF087N,0*7D",
"!AIVDM,1,1,,A,13IQ?i;00000W5@LCmaHS8hJ0@7R,0*54",
"!AIVDM,1,1,,A,1815K2h001P0e20LCVPLmp2H0h7e,0*24",
"!AIVDM,1,1,,B,13btOt0000P17ChLCNmj>QjD052t,0*33",
"!AIVDM,1,1,,A,337d=V0PA700he8LClsIs7JL01r0,0*65",
"!AIVDM,1,1,,A,13Hgj;PP0100Q>hLD:N6eOvH00Sr,0*23",
"!AIVDM,1,1,,A,13GR8@P001P0R?`LD57lUPNJ0887,0*25",
"!AIVDM,1,1,,B,13GRBn0P1FP0m?JLD1po;wvJ20RN,0*39",
"!AIVDM,1,1,,B,402;bFQv@T`g=00Dl6LE57A0088Q,0*00",
"!AIVDM,1,1,,A,137Q:T001lP0N:DLD2W4eClH00Sj,0*43",
"!AIVDM,1,1,,B,13aDqKhP00P0p<hLCG1D2gvNR52t,0*35",
"!AIVDM,1,1,,A,13I;QJP00000QvPLD:`E52fP00SB,0*6D",
"!AIVDM,1,1,,B,13Hbq1?P01P14H8LB2:L<wvP20SM,0*3D",
"!AIVDM,1,1,,B,13Ht`rPP0000Q9bLD:Oh0?vN0<0a,0*7C",
"!AIVDM,1,1,,A,39NS6oE000P0hSlLCneaf`BLH000,0*3F",
"!AIVDM,1,1,,A,13HOI<PP0000drVLCW12FwvR0H:0,0*2A",
"!AIVDM,1,1,,B,13HQ8p?001P0pL0LCCt5vJ`R00S6,0*72",
"!AIVDM,1,1,,A,13GROl4P00P0nqnLDT<r>OvPR8:A,0*33",
"!AIVDM,1,1,,A,39N`1Pi2h3wwHI2LD>A8BVjR0Dg:,0*1A",
"!AIVDM,2,1,7,B,53Id7502>qO@HliN22058lu8U5DF2222222222152JD>=4Te??Qh`43AH888,0*56",
"!AIVDM,2,2,7,B,88888888880,2*20",
"!AIVDM,1,1,,A,33IgVQ500000V80LCrWeQ8jR0000,0*4A",
"!AIVDM,1,1,,A,13aDpL0P0A00k1>LDLG2KwwVR@;6,0*7B",
"!AIVDM,1,1,,B,13IbQQ0P0100lq2LD7KW`wvT8@<9,0*29",
"!AIVDM,1,1,,B,13Id75033Jwv?uBLGe6=ArLV0`<J,0*11",
"!AIVDM,1,1,,B,13HT5AgP00P0q0PLDUJBwgvV20Sf,0*5B",
"!AIVDM,1,1,,A,137d=V001600hVtLClhqboJb00SP,0*0D",
"!AIVDM,1,1,,B,13IeIP000400d8fLCVhSWE`b00ST,0*59",
"!AIVDM,1,1,,A,402:rbQv@T`gDP14=`LB6O700@<F,0*38",
"!AIVDM,1,1,,A,D02:rbQMdffqS1N9H0,4*2A",
"!AIVDM,1,1,,A,13IVvu0P0000kQ>LCo?p`Ovb052t,0*0B",
"!AIVDM,1,1,,B,13I<skPP0100Q3lLD:nMUwvV0D1B,0*51",
"!AIVDM,1,1,,B,13IlGV7OhoOwtdRLFKinT5jb08<N,0*43",
"!AIVDM,1,1,,B,1815K2h001P0e26LCVQLmp2`0U2t,0*21",
"!AIVDM,1,1,,B,13IdFD300000Vu<LCkkbrkRd0H<g,0*75",
"!AIVDM,1,1,,B,13HOI:?P0100e?dLCWtt3wv`0L1N,0*0A",
"!AIVDM,1,1,,B,13IeUW000000jJJLC4o;bErf08=2,0*38",
"!AIVDM,1,1,,A,13btOt0000P17ChLCNmj>Qj`0D15,0*27",
"!AIVDM,1,1,,A,13GRBn0P1CP0m?dLD11Vgwvd252t,0*44",
"!AIVDM,1,1,,B,133w4wP000P0dJlLC@b:9`jfR@=Q,0*5E",
"!AIVDM,1,1,,B,13IMJM000000PilLD;ue:Wv`00SI,0*33",
"!AIVDM,1,1,,B,6>jCKP3fJjOt>da0HQ00P00,2*11",
"!AIVDM,1,1,,B,137Q:T001lP0NGdLD1w4ckld0<1C,0*7B",
"!AIVDM,1,1,,B,13IQ?i;00000W5FLCm`B5Hhh0D1J,0*74",
"!AIVDM,1,1,,B,13GR8@P001P0R?bLD57TAhNf00Ro,0*26",
"!AIVDM,1,1,,A,402;bFQv@T`gG00Dl4LE57A0052t,0*59",
"!AIVDM,1,1,,A,13cA<:0v0WOwI8rLFiM7dVHd8@>L,0*17",
"!AIVDM,1,1,,B,337d=V001700hSdLClTISWJj01sh,0*04",
"!AIVDM,1,1,,B,13Hgj;PP0400Q>hLD:N=<wvf052t,0*03",
"!AIVDM,1,1,,A,13aDqKhP00P0p<hLCG1D2gvjR<1L,0*20",
"!AIVDM,1,1,,A,13Id750uCJwv?oNLGfKuCrNj0U2t,0*3D",
"!AIVDM,1,1,,A,D02;bFQJ<Lfp00M6EFTu6D0,2*1B",
"!AIVDM,1,1,,A,337d=V001700hQVLClUaQoJn012P,0*59",
"!AIVDM,1,1,,A,13Ht`rPP0400Q9VLD:R@rwvl0H?e,0*2D",
"!AIVDM,1,1,,A,13Hbq1?P02P14H8LB29t=Ovn2<0r,0*51",
"!AIVDM,1,1,,A,13IbQQ0P0000lq2LD7KHSgvl88@w,0*65",
"!AIVDM,1,1,,B,13GROl4P00P0nqhLDT9pROvnR52t,0*53",
"!AIVDM,1,1,,B,13aDpL0P0A00k24LDLD2Kwv2R52t,0*29",
"!AIVDM,1,1,,B,33P;p1i403wwarlLDWtLoFq:0lVr,0*53",
"!AIVDM,1,1,,B,137d=V001800hNfLClQIOGLt08AF,0*12",
"!AIVDM,1,1,,B,13HPIH?000P0jE>LC4iKt5np08AL,0*03",
"!AIVDM,1,1,,A,33MAMJUP0000StDLDDQ=o?vuP000,0*58",
"!AIVDM,1,1,,A,13IeIP000500d9BLCVg4nE`v0@Ad,0*69",
"!AIVDM,1,1,,B,6>jCKIkfJjOt>db;pe00P00,2*54",
"!AIVDM,1,1,,A,13I<skPP0200Q3pLD:m7L?vr052t,0*05",
"!AIVDM,1,1,,A,13aFf6PP0000l@tLDK<f4?vvP@B;,0*70",
"!AIVDM,1,1,,B,402:rbQv@T`gNP14=`LB6O70052t,0*78",
"!AIVDM,1,1,,B,D02:rbQMdffq:1N9H0,4*40",
"!AIVDM,1,1,,B,13IVvu0P0000kQ>LCo?8`Ovv0D1>,0*6C",
"!AIVDM,1,1,,A,13IdFD300000Vu>LCkjbrkS00@BM,0*7C",
"!AIVDM,1,1,,B,13Id750vCJwv?i`LGgiMC:Nv0d1D,0*58",
"!AIVDM,1,1,,B,13btOt0000P17ChLCNmj>Qjr0<15,0*4E",
"!AIVDM,1,1,,A,13I94F0P0pP0nOPLDRn9Sww02<0w,0*30",
"!AIVDM,1,1,,A,13GRUePP0400lEJLDKNuVOw020Rc,0*73",
"!AIVDM,1,1,,B,13GRBn0P1AP0mBBLD096Fww02@CE,0*36",
"!AIVDM,1,1,,A,1815K2h000P0e2PLCVQn<H300PRf,0*28",
"!AIVDM,1,1,,A,13IQ?i;00000W5FLCmWsA8g20@CL,0*50",
"!AIVDM,1,1,,A,13GR8@P001P0R?VLD57RDPO008CS,0*58",
"!AIVDM,1,1,,A,337d=V001900hKHLClEaMGM4020@,0*3B",
"!AIVDM,1,1,,A,13Hgj;PP0100Q>hLD:Mh;ww00<0j,0*16",
"!AIVDM,1,1,,B,33HOI?0P0000dGHLCVWcWww40Rp1,0*72",
"!AIVDM,1,1,,A,137Q:T001lP0NU2LD1G4cSm00<1C,0*61",
"!AIVDM,1,1,,B,402;bFQv@T`gQ00Dl4LE57Q00D1Q,0*0B",
"!AIVDM,1,1,,B,23:l:N1003wwN1TLD>iKhVW008DF,0*68",
"!AIVDM,1,1,,B,13aDqKhP00P0p<hLCG1D2gw6R0Sg,0*3B",
"!AIVDM,1,1,,B,33Hbq1?P02P14H:LB29<A?w:24dC,0*2E",
"!AIVDM,1,1,,A,33bOor1Oh2OwPl0LCRA`Gna82000,0*08",
"!AIVDM,1,1,,A,13HOI<PP0200drlLCVvEhOw80D1`,0*09",
"!AIVDM,1,1,,A,13I;QJPOh000QupLD:fm52g:0<1B,0*42",
"!AIVDM,1,1,,B,33HQ8p?000P0pL0LCCt2Q:a:03PS,0*2D",
"!AIVDM,1,1,,A,13Id750vkIwv?clLGi7=BbM:0d1G,0*43",
"!AIVDM,1,1,,B,13IbQQ0P0100lq2LD7KHN?w:8<12,0*45",
"!AIVDM,1,1,,A,13GROl4P00P0nqhLDT8Hmww<RD10,0*0B",
"!AIVDM,1,1,,A,13aDpL0P0A00k2FLDLCBKwvHR52t,0*55",
"!AIVDM,1,1,,A,13IVvu0P0100kQ8LCo?8`Ow@00T1,0*41",
"!AIVDM,1,1,,B,13I<skPP0100Q3tLD:krbww>052t,0*69",
"!AIVDM,1,1,,B,35U>GJ1101wvmmlLI<0DpnuV0Dg:,0*70",
"!AIVDM,1,1,,B,13HOI:?P0200e?6LCWvn8?w>08Gn,0*7D",
"!AIVDM,1,1,,B,D02;bFQ?@Lfq6DM6EH8u6D0,2*00",
"!AIVDM,1,1,,A,137d=V001:00hEDLCl0aKoOB0HGt,0*2E",
"!AIVDM,1,1,,B,13IdFD300100Vu>LCkhrrkSB0<1e,0*39",
"!AIVDM,1,1,,A,402:rbQv@T`g`P14=`LB6O7008H4,0*62",
"!AIVDM,1,1,,A,D02:rbPflffpl9N9H0,4*3E",
"!AIVDM,1,1,,B,35?HRN5000P0WR4LCEg6V`lh0D3b,0*10",
"!AIVDM,1,1,,B,13aFf6PP0000l@nLDK=N4?wBP<1F,0*07",
"!AIVDM,1,1,,B,13I94F0P0pP0nHvLDRaIdwwB2D0w,0*50",
"!AIVDM,1,1,,B,13IeUW000000jJPLC4o9oEsD0D13,0*7F",
"!AIVDM,1,1,,B,33GRUePP0500lEVLDKPMVOwB233i,0*53",
"!AIVDM,1,1,,B,1815K2h000P0e2lLCVQUqH5B0U2t,0*62",
"!AIVDM,1,1,,B,33ktppU000P0rNtLCgVs8S7D000>,0*2C",
"!AIVDM,1,1,,B,13IMJM000000PilLD<0=:Ww@0D1:,0*6D",
"!AIVDM,1,1,,A,13cA<:01@bOwI6PLFhb7K6I@80S;,0*17",
"!AIVDM,1,1,,A,13btOt0001P17CfLCNn<iQk@0HIF,0*0C",
"!AIVDM,1,1,,B,13Id75003Iwv?VnLGj>=A:MD0PSR,0*05",
"!AIVDM,1,1,,B,133w4wP000P0dJTLC@br=8iFR<14,0*44",
"!AIVDM,1,1,,A,13GRBn0P1AP0mG6LCw=F0gwF2<1>,0*15",
"!AIVDM,1,1,,B,13GR8@P001P0R?`LD5742@OF0@Il,0*56",
"!AIVDM,1,1,,B,13IQ?i;00000W5@LCmVae8iH0D1J,0*66",
"!AIVDM,1,1,,B,137Q:T001lP0NjFLD0g4ckmD0HIv,0*7D",
"!AIVDM,1,1,,B,13Hgj;PP0000Q>fLD:MTBOwF00RR,0*47",
"!AIVDM,1,1,,A,402;bFQv@T`gc00Dl4LE57Q00L1U,0*36",
"!AIVDM,1,1,,A,13aDqKhP00P0p<hLCG1D2gwJR8K3,0*00",
"!AIVDM,1,1,,A,13Hbq1?P02P14H8LB28<?wwN2<0r,0*03",
"!AIVDM,1,1,,A,13HQ8p?001P0pL0LCCt<>:aL0HKV,0*5F",
"!AIVDM,1,1,,B,13HOI<PP0200drjLCVp5iwwN0@Kl,0*47",
"!AIVDM,1,1,,A,13Ht`rPP0000Q9bLD:TP0?wL00S5,0*64",
"!AIVDM,1,1,,B,13aDpL0P0A00k2fLDLCBKwvbRD0v,0*2D",
"!AIVDM,1,1,,A,13IbQQ0P0100lq2LD7K4t?wP80Rr,0*45",
"!AIVDM,1,1,,B,13IVvu0P0100kQ2LCo?8`OwT0@MD,0*40",
"!AIVDM,1,1,,A,13IdFD300000Vu@LCkgrrkST08MJ,0*0B",
"!AIVDM,1,1,,B,33P:nUU000P0r`NLCoq;f`kT0000,0*3E",
"!AIVDM,1,1,,A,13HOI:?P0300e?DLCWwD:?wR08MT,0*78",
"!AIVDM,1,1,,B,402:rbQv@T`gjP14=`LB6O700<1M,0*6F",
"!AIVDM,1,1,,B,D02:rbPflffpK9N9H0,4*1A",
"!AIVDM,1,1,,A,1815K2h000P0e3PLCVRUqH5T0pN;,0*5F",
"!AIVDM,1,1,,A,13I<skPP0200Q3vLD:kWagwT0<1>,0*77",
"!AIVDM,1,1,,A,13IlGV7OhgOwtfhLFJ3FmmcV0<15,0*2D",
"!AIVDM,1,1,,A,13IeUW000000jJLLC4nbqEub0@Nd,0*28",
"!AIVDM,1,1,,A,13I94F0P0nP0nA:LDRJacgw`2D0w,0*3E",
"!AIVDM,1,1,,A,13IMJM000000PilLD<0=:WwT052t,0*46",
"!AIVDM,1,1,,A,13IQ?i;00000W5@LCmV6Ppib052t,0*29",
"!AIVDM,2,1,8,B,53HPIH82<K2`IOW;3H1H:0L5<<tLpD000000000l1PI64400000000000000,0*7B",
"!AIVDM,2,2,8,B,00000000000,2*2F",
"!AIVDM,1,1,,B,13btOt0001P17CfLCNmq@QkT0L16,0*70",
"!AIVDM,1,1,,B,13cA<:0vhUOwI4lLFh=WjFIV80SP,0*61",
"!AIVDM,1,1,,A,13Hgj;PP0500Q>fLD:M@POw`00SN,0*7C",
"!AIVDM,1,1,,A,13GR8@P001P0R?VLD56TJ@Ob0D17,0*79",
"!AIVDM,1,1,,B,402;bFQv@T`gm00Dl4LE57Q00<1a,0*7F",
"!AIVDM,1,1,,A,137Q:T001lP0NwlLD07TcCm`052t,0*71",
"!AIVDM,2,1,9,A,53HWCj400000HoKCGH08uD<5D0000000000000000`;24t0Ht50000000000,0*6C",
"!AIVDM,2,2,9,A,00000000000,2*2D",
"!AIVDM,1,1,,A,83HWCj0j2P00000000D0N?mm6@00,0*50",
"!AIVDM,1,1,,B,33HQ8p?001P0pKvLCCt9LJcf01@S,0*47",
"!AIVDM,1,1,,A,D02;bFPCpLfq6DM6D@@u6D0,2*3F",
"!AIVDM,1,1,,B,13Hbq1?P02P14H8LB27d6?wj2HQ5,0*60",
"!AIVDM,1,1,,A,13HOI<PP0100drjLCVkTJwwh08Q8,0*0E",
"!AIVDM,1,1,,B,13aDqKhP00P0p<hLCG1D2gwhR0Rd,0*67",
"!AIVDM,2,1,0,A,53lo`H42B<LKTP7;W;D4@HTpE>1=Dr222222221@@pKE24RmN@AkkQTQERC3,0*34",
"!AIVDM,2,2,0,A,1H1T`888880,2*60",
"!AIVDM,1,1,,B,13IbQQ0P0100lq4LD7K8DOwh8<0q,0*59",
"!AIVDM,1,1,,A,13GROl4P00P0nqbLDT98mgwlR52t,0*06",
"!AIVDM,1,1,,A,13aDpL0P0A00k3NLDLFBKww0R0R=,0*0C",
"!AIVDM,1,1,,A,33lo`H5wP0P15bfLCdTLL`h00lcb,0*25",
"!AIVDM,1,1,,A,13IVvu0P0100kPvLCo?8`Ov00D1>,0*61",
"!AIVDM,2,1,1,B,53GRUeT00000HoGWO<1@PTE99V0l00000000001C<P0:0w?j?04j1C3;ckPC,0*18",
"!AIVDM,2,2,1,B,U1DTQ@00000,2*43",
"!AIVDM,1,1,,B,13I94F0P0iP0n<4LDR=abOv02<0w,0*3E",
"!AIVDM,1,1,,B,13IdFD300000Vu<LCkgrrkR20<1e,0*44",
"!AIVDM,1,1,,A,402:rbQv@T`h0P14=`LB6O7000S:,0*20",
"!AIVDM,1,1,,A,D02:rbR<Tffp5AN9H0,4*7F",
"!AIVDM,1,1,,B,13I<skPP0200Q42LD:k@M?wn080f,0*33",
"!AIVDM,1,1,,A,137d=V001?00h26LCju9O7T40D1G,0*4D",
"!AIVDM,1,1,,B,13HT5AgP00P0q0PLDUJBwgv22@0p,0*3A",
"!AIVDM,1,1,,B,13GRUePP0200lE2LDKIMVOv2280w,0*4C",
"!AIVDM,1,1,,A,13Id7501CIwv?C`LGnKMAJJ20d1K,0*23",
"!AIVDM,1,1,,B,13HOI:?P0500e?BLCWwnM?v00H17,0*2A",
"!AIVDM,1,1,,B,13IeUW000000jJLLC4nKaEt4081>,0*18",
"!AIVDM,1,1,,A,13GRBn0P1CP0mQBLCupUVwv22@1G,0*2F",
"!AIVDM,1,1,,B,13IQ?i;00000W5@LCmV8:Hf60<1J,0*19",
"!AIVDM,1,1,,B,83GRUePj2d<<<<<<<1tpg?bh0000,0*3C",
"!AIVDM,1,1,,B,3815K2h000P0e3TLCVS5qH440wwk,0*34",
"!AIVDM,1,1,,A,13btOt0000P17ChLCNmj>Qj00D16,0*74",
"!AIVDM,1,1,,B,13IMJM000000PiPLD<0=:Wv000S0,0*3C",
"!AIVDM,1,1,,B,13GR8@P001P0R?TLD56UchN6082E,0*20",
"!AIVDM,1,1,,B,137Q:T001kP0O=8LCwP4cCl4082G,0*46",
"!AIVDM,1,1,,B,13Hgj;PP0200Q>fLD:MWPwv40530,0*19",
"!AIVDM,2,1,2,A,53IgVQ02>iFHHlhR221=B1<5862222222222221@<pE@14Om:AS1H20ETQH8,0*79",
"!AIVDM,2,2,2,A,88888888880,2*26",
"!AIVDM,1,1,,B,83HQ8p0j2d=d<=<L>B9QB?aE0000,0*16",
"!AIVDM,1,1,,B,23:l:N1000wwN1@LD>kp?VV600S7,0*78",
"!AIVDM,1,1,,A,13aDqKhP00P0p<hLCG1D2gv<R83l,0*50",
"!AIVDM,1,1,,A,13Ht`rPP0000Q8pLD:U00?v:00Sj,0*3E",
"!AIVDM,1,1,,A,13HQ8p?001P0pL0LCCsmNr`<0849,0*20",
"!AIVDM,1,1,,B,13HOI<PP0100drBLCVklpwv>084=,0*10",
"!AIVDM,1,1,,B,13Id7502kIwv?>NLGoR=>bJ<0U30,0*21",
"!AIVDM,1,1,,B,13aDpL0P0A00k3bLDLG2KwwBR<0t,0*07",
"!AIVDM,2,1,3,B,53Hbq1400000H4;?GS05E8DhTF2222222222221J1@53340Ht00000000000,0*60",
"!AIVDM,2,2,3,B,00000000000,2*24",
"!AIVDM,1,1,,B,13HPIH?000P0jE<LC4j9=En>0H52,0*7D",
"!AIVDM,1,1,,B,13GROl4P00P0nqhLDT:a7Ov@RD0w,0*7A",
"!AIVDM,1,1,,A,13IbQQ0P0100lq4LD7Jn`gv@8868,0*63",
"!AIVDM,1,1,,B,137d=V001@00gqvLCj`aS7VD0<1G,0*66",
"!AIVDM,1,1,,A,13IdFD300000Vu8LCkhbrkRF0<1e,0*28",
"!AIVDM,1,1,,A,13HOI:?P0400e?HLCWvFe?vB0<1N,0*5C",
"!AIVDM,1,1,,B,D02;bFP8tLfp00M6DAlu6D0,2*1D",
"!AIVDM,1,1,,A,13IeIP000100d9fLCVgoFmRF0@6E,0*46",
"!AIVDM,1,1,,B,402:rbQv@T`h:P14=`LB6O700H6O,0*41",
"!AIVDM,1,1,,B,D02:rbR<TffqpqN9H0,4*08",
"!AIVDM,1,1,,A,33HWCj5P00P0e5hLD;wp0OvD2DbJ,0*0A",
"!AIVDM,1,1,,A,13I94F0P0dP0n5lLDR0a`gvF2D0w,0*48",
"!AIVDM,1,1,,B,13IVvu0P0100kPpLCo>H`OvF086p,0*56",
"!AIVDM,1,1,,A,13aFf6PP0000l@rLDK<f4?vFP870,0*40",
"!AIVDM,1,1,,A,13GRUePP0100lE4LDKBMVOvF2879,0*7C",
"!AIVDM,1,1,,A,13IQ?i;00100W5BLCmVWN8fJ0<1J,0*0E",
"!AIVDM,1,1,,B,13GRBn0P1CP0ma<LCu7UDOvH2H7S,0*6F",
"!AIVDM,1,1,,B,13btOt0000P17ChLCNmj>QjD00S7,0*14",
"!AIVDM,1,1,,A,13IeUW000000jJJLC4naW5tL00RJ,0*16",
"!AIVDM,1,1,,A,13GR8@P002P0R?HLD5;DLPNJ0530,0*32",
"!AIVDM,1,1,,B,402;bFQv@T`h=00Dl:LE57Q00530,0*74",
"!AIVDM,1,1,,A,13Hgj;PP0100Q>fLD:MdawvJ0D0f,0*41",
"!AIVDM,1,1,,B,13aDqKhP00P0p<hLCG1D2gvNR0Sn,0*4B",
"!AIVDM,1,1,,A,13I;QJPP@000QvHLD:b552`P0L1@,0*0D",
"!AIVDM,1,1,,A,137Q:T001jP0OLtLCvi4bklL0L1B,0*62",
"!AIVDM,1,1,,A,38156iA001OwQO<LD9q3`V`P0000,0*69",
"!AIVDM,1,1,,B,13Hbq1?P01P14H0LB27L5wvR2<0r,0*63",
"!AIVDM,1,1,,B,13Ht`rPP0000Q98LD:U00?vN089f,0*6E",
"!AIVDM,1,1,,A,13HOI<PP0000drHLCVo5qwvR0D1`,0*0C",
"!AIVDM,1,1,,B,13HQ8p?001P0pKvLCCt1lbbP0@:3,0*19",
"!AIVDM,1,1,,A,83GRAIPj2P00000001T0e?bU9H00,0*11",
"!AIVDM,1,1,,A,13GROl4P00P0nqnLDT<9QgvPR530,0*4A",
"!AIVDM,1,1,,A,13aDpL0P0A00k3BLDLHRKwwVR<0u,0*5E",
"!AIVDM,1,1,,B,13IbQQ0P0000lq6LD7JqD?vT8<0t,0*5A",
"!AIVDM,1,1,,A,13HPIH?000P0jE:LC4jPv5nT0@;d,0*10",
"!AIVDM,1,1,,B,13Id750ukHwv?0dLGrI==JJV0U30,0*04",
"!AIVDM,1,1,,B,13I94F0P0cP0n16LDQlqU?v`2D0w,0*16",
"!AIVDM,1,1,,A,137d=V001B00gfTLCj=qUG`b0<1G,0*79",
"!AIVDM,1,1,,A,402:rbQv@T`hDP14=`LB6O700<1E,0*45",
"!AIVDM,1,1,,A,D02:rbQMdffqS1N9H0,4*2A",
"!AIVDM,1,1,,B,13I<skPP0000Q48LD:j5EgvV0@<J,0*7E",
"!AIVDM,1,1,,B,13HT5AgP00P0q0PLDUJBwgv`2@<M,0*59",
"!AIVDM,1,1,,B,13IeIP0Oh100d9fLCVh=kEVd0<1N,0*6C",
"!AIVDM,1,1,,B,1815K2h000P0e3TLCVT5qH4b0PRv,0*78",
"!AIVDM,1,1,,B,13aFf6PP0000l@nLDK<f4?vbP530,0*72",
"!AIVDM,1,1,,B,13IdFD300100Vu2LCkibrkRd0D1e,0*7B",
"!AIVDM,1,1,,B,33HOI:?P0000e?fLCWuGKOv`00Gk,0*56",
"!AIVDM,1,1,,B,13IeUW000000jJHLC4nmrEtf0530,0*7A",
"!AIVDM,2,1,4,B,53Ij:U82Ecr4Hh@`000<l60<Ln0Hu9@@DI84p<E:E`f@D4Uk0JATQB?gQTSE,0*36",
"!AIVDM,2,2,4,B,60000000000,2*25",
]
"""
Datas "fake_planes" from AirSuck "fakePlane2state" under GPL3
"""

Loading…
Cancel
Save